• Terra Properties Inc
  • Software Answer


Nearby METAR Reports


KEDC - Austin Exec, Texas, USA
Distance from station: SW 16mi, 25km
Updated: Mon, 21-May-2018 5:55am CDT
NOT Current
Overcast
Overcast
 Wind from NE
Wind: NE 6 mph , 9 km/h
Temperature: 66°F , 19°C
Dew Point: 66°F , 19°C
Humidity: 100%
Barometer: 30.01 inHg , 1016.3 hPa
Clouds: Overcast
Visibility: 10 miles , 16 km
Cloud details: Overcast 700 ft
2018/05/21 10:55 KEDC 211055Z AUTO 04005KT 10SM OVC007 19/19 A3001 RMK AO2
KGTU - Georgetown, Texas, USA
Distance from station: WNW 17mi, 28km
Updated: Mon, 21-May-2018 7:34am CDT
Mist, Overcast
Mist, Overcast
 Wind from ENE
Wind: ENE 3 mph , 6 km/h
Temperature: 68°F , 20°C
Dew Point: 66°F , 19°C
Humidity: 94%
Barometer: 30.04 inHg , 1017.3 hPa
Summary: Mist
Clouds: Overcast
Visibility: 2 1/2 miles , 2 km
Cloud details: Mostly Cloudy 400 ft
Overcast 800 ft
2018/05/21 12:34 KGTU 211234Z 07003KT 2 1/2SM BR BKN004 OVC008 20/19 A3004 RMK AO2 VIS 2V5
 
KATT - Austin/Mabry, Texas, USA
Distance from station: SW 28mi, 45km
Updated: Mon, 21-May-2018 6:51am CDT
Overcast
Overcast
 Wind from varies
Wind: varies 3 mph , 6 km/h
Temperature: 70°F , 21°C
Dew Point: 66°F , 19°C
Humidity: 88%
Barometer: 30.01 inHg , 1016.3 hPa
Clouds: Overcast
Visibility: 7 miles , 11 km
Cloud details: Overcast 500 ft
2018/05/21 11:51 KATT 211151Z AUTO VRB03KT 7SM OVC005 21/19 A3001 RMK AO2 RAE04 SLP152 P0000 60000 70087 T02060189 10211 20206 53009
KAUS - Austin, Texas, USA
Distance from station: SSW 32mi, 51km
Updated: Mon, 21-May-2018 6:53am CDT
Overcast
Overcast
 Wind from NE
Wind: NE 6 mph , 9 km/h
Temperature: 70°F , 21°C
Dew Point: 68°F , 20°C
Humidity: 94%
Barometer: 29.99 inHg , 1015.6 hPa
Clouds: Overcast
Visibility: 8 miles , 13 km
Cloud details: Overcast 500 ft
2018/05/21 11:53 KAUS 211153Z 04005KT 8SM OVC005 21/20 A2999 RMK AO2 RAE36 SLP148 P0000 60000 70048 T02110200 10217 20211 53009 $
 
KRYW - Lago Vista, Texas, USA
Distance from station: W 33mi, 54km
Updated: Mon, 21-May-2018 7:35am CDT
Light drizzle, Overcast
Light drizzle, Overcast
 Wind from ENE
Wind: ENE 3 mph , 6 km/h
Temperature: 68°F , 20°C
Dew Point: 68°F , 20°C
Humidity: 100%
Barometer: 30.03 inHg , 1016.9 hPa
Summary: Light Drizzle
Clouds: Overcast
Visibility: 1/2 mile , 2 km
Cloud details: Overcast 300 ft
2018/05/21 12:35 KRYW 211235Z AUTO 07003KT 1/2SM -DZ OVC003 20/20 A3003 RMK AO2 T02000198
KILE - Killeen Muni, Texas, USA
Distance from station: NNW 37mi, 59km
Updated: Mon, 21-May-2018 7:33am CDT
Overcast
Overcast
 Wind from NE
Wind: NE 6 mph , 9 km/h
Temperature: 66°F , 19°C
Dew Point: 66°F , 19°C
Humidity: 100%
Barometer: 30.04 inHg , 1017.3 hPa
Clouds: Overcast
Visibility: 10 miles , 16 km
Cloud details: Mostly Cloudy 500 ft
Overcast 1200 ft
2018/05/21 12:33 KILE 211233Z AUTO 04005KT 10SM BKN005 OVC012 19/19 A3004 RMK AO2 CIG 003V007
 
KTPL - Temple/Miller, Texas, USA
Distance from station: N 38mi, 61km
Updated: Mon, 21-May-2018 6:59am CDT
Overcast
Overcast
 Wind from NNE
Wind: NNE 5 mph , 7 km/h
Temperature: 66°F , 19°C
Dew Point: 66°F , 19°C
Humidity: 100%
Barometer: 30.03 inHg , 1016.9 hPa
Clouds: Overcast
Visibility: 8 miles , 13 km
Cloud details: Overcast 1300 ft
2018/05/21 11:59 KTPL 211159Z AUTO 03004KT 8SM OVC013 19/19 A3003 RMK AO2
KGYB - Giddings-Lee, Texas, USA
Distance from station: SE 39mi, 62km
Updated: Mon, 21-May-2018 7:35am CDT
Overcast
Overcast
 Wind from E
Wind: E 5 mph , 7 km/h
Temperature: 64°F , 18°C
Dew Point: 64°F , 18°C
Humidity: 100%
Barometer: 30.01 inHg , 1016.3 hPa
Clouds: Overcast
Visibility: 10 miles , 16 km
Cloud details: Overcast 600 ft
2018/05/21 12:35 KGYB 211235Z AUTO 08004KT 10SM OVC006 18/18 A3001 RMK AO2 T01830176
 
KGRK - Gray/Ft Hood, Texas, USA
Distance from station: NW 42mi, 67km
Updated: Mon, 21-May-2018 6:58am CDT
Overcast
Overcast
 Wind from NE
Wind: NE 6 mph , 9 km/h
Temperature: 66°F , 19°C
Dew Point: 66°F , 19°C
Humidity: 100%
Barometer: 30.02 inHg , 1016.6 hPa
Clouds: Overcast
Visibility: 8 miles , 13 km
Cloud details: Overcast 1100 ft
2018/05/21 11:58 KGRK 211158Z 05005KT 8SM OVC011 19/19 A3002 RMK AO2A SLP159 T01940186 10194 20183 52010 $
KHLR - Ft Hood/Killeen, Texas, USA
Distance from station: NNW 42mi, 67km
Updated: Mon, 21-May-2018 7:23am CDT
Overcast
Overcast
 Wind from NE
Wind: NE 7 mph , 11 km/h
Temperature: 66°F , 19°C
Dew Point: 66°F , 19°C
Humidity: 100%
Barometer: 30.00 inHg , 1015.9 hPa
Clouds: Overcast
Visibility: 9 miles , 14 km
Cloud details: Mostly Cloudy 300 ft
Overcast 900 ft
2018/05/21 12:23 KHLR 211223Z AUTO 04006KT 9SM BKN003 OVC009 19/19 A3000 RMK AO2 CIG 003V010 BKN V FEW SLP151
 
KRWV - Caldwell, Texas, USA
Distance from station: E 43mi, 69km
Updated: Mon, 21-May-2018 7:35am CDT
Overcast
Overcast
 Wind from E
Wind: E 5 mph , 7 km/h
Temperature: 68°F , 20°C
Dew Point: 66°F , 19°C
Humidity: 94%
Barometer: 30.01 inHg , 1016.3 hPa
Clouds: Overcast
Visibility: 10 miles , 16 km
Cloud details: Overcast 1200 ft
2018/05/21 12:35 KRWV 211235Z AUTO 08004KT 10SM OVC012 20/19 A3001 RMK AO2 T02000191
KBMQ - Burnet, Texas, USA
Distance from station: WNW 50mi, 80km
Updated: Mon, 21-May-2018 6:53am CDT
Mist, Overcast
Mist, Overcast
 Wind from ENE
Wind: ENE 6 mph , 9 km/h
Temperature: 66°F , 19°C
Dew Point: 66°F , 19°C
Humidity: 100%
Barometer: 30.04 inHg , 1017.3 hPa
Summary: Mist
Clouds: Overcast
Visibility: 3 miles , 5 km
Cloud details: Overcast 300 ft
2018/05/21 11:53 KBMQ 211153Z AUTO 06005KT 3SM BR OVC003 19/19 A3004 RMK AO2 SLP159 70258 T01940189 10200 20194 53010 $